createdAt,value
2018-05-17T00:01:17.568Z,97237.23
2018-05-17T00:03:45.137Z,97236.35
2018-05-17T00:06:12.660Z,97235.28
2018-05-17T00:08:40.652Z,97232.64
2018-05-17T00:11:08.221Z,97229.79
2018-05-17T00:13:35.755Z,97230.48
2018-05-17T00:16:03.281Z,97223.78
2018-05-17T00:18:31.020Z,97222.38
2018-05-17T00:20:58.565Z,97227.52
2018-05-17T00:23:26.105Z,97226.55
2018-05-17T00:25:53.665Z,97228.93
2018-05-17T00:28:21.192Z,97221.78
2018-05-17T00:30:48.716Z,97222.00
2018-05-17T00:33:16.267Z,97223.38
2018-05-17T00:35:43.797Z,97224.39
2018-05-17T00:38:11.387Z,97224.13
2018-05-17T00:40:38.958Z,97217.73
2018-05-17T00:43:06.483Z,97213.22
2018-05-17T00:45:35.017Z,97209.11
2018-05-17T00:48:03.065Z,97203.08
2018-05-17T00:50:30.598Z,97209.97
2018-05-17T00:53:09.798Z,97200.81
2018-05-17T00:55:37.320Z,97196.71
2018-05-17T00:58:04.845Z,97196.03
2018-05-17T01:00:32.636Z,97187.73
2018-05-17T01:03:00.156Z,97189.82
2018-05-17T01:05:27.688Z,97182.79
2018-05-17T01:07:55.252Z,97183.81
2018-05-17T01:10:22.772Z,97181.08
2018-05-17T01:12:50.301Z,97189.95
2018-05-17T01:15:17.871Z,97181.19
2018-05-17T01:17:45.401Z,97186.91
2018-05-17T01:20:12.933Z,97176.91
2018-05-17T01:22:40.494Z,97183.16
2018-05-17T01:25:08.024Z,97185.02
2018-05-17T01:27:35.541Z,97196.08
2018-05-17T01:30:03.133Z,97193.91
2018-05-17T01:32:30.660Z,97191.69
2018-05-17T01:34:58.266Z,97193.69
2018-05-17T01:37:37.686Z,97196.71
2018-05-17T01:40:05.213Z,97185.23
2018-05-17T01:42:32.736Z,97189.30
2018-05-17T01:45:00.319Z,97184.75
2018-05-17T01:47:27.839Z,97181.43
2018-05-17T01:49:55.364Z,97193.67
2018-05-17T01:52:23.056Z,97191.62
2018-05-17T01:54:50.577Z,97194.70
2018-05-17T01:57:18.323Z,97193.83
2018-05-17T01:59:46.105Z,97195.25
2018-05-17T02:02:13.633Z,97190.44
2018-05-17T02:04:41.156Z,97188.67
2018-05-17T02:07:08.937Z,97193.44
2018-05-17T02:09:36.473Z,97187.94
2018-05-17T02:12:04.002Z,97189.53
2018-05-17T02:14:31.784Z,97187.70
2018-05-17T02:16:59.304Z,97183.11
2018-05-17T02:19:26.874Z,97187.13
2018-05-17T02:21:54.428Z,97184.38
2018-05-17T02:24:21.957Z,97196.63
2018-05-17T02:26:49.484Z,97199.11
2018-05-17T02:29:17.376Z,97201.41
2018-05-17T02:31:44.905Z,97204.98
2018-05-17T02:34:12.425Z,97205.72
2018-05-17T02:36:40.272Z,97214.07
2018-05-17T02:39:07.796Z,97211.77
2018-05-17T02:41:35.325Z,97214.91
2018-05-17T02:44:02.897Z,97216.78
2018-05-17T02:46:30.520Z,97212.81
2018-05-17T02:48:58.037Z,97214.59
2018-05-17T02:51:25.781Z,97214.90
2018-05-17T02:53:53.313Z,97212.41
2018-05-17T02:56:20.837Z,97225.80
2018-05-17T02:58:48.599Z,97225.17
2018-05-17T03:01:16.125Z,97234.02
2018-05-17T03:03:43.649Z,97221.43
2018-05-17T03:06:11.376Z,97228.36
2018-05-17T03:08:38.921Z,97232.00
2018-05-17T03:11:06.440Z,97230.50
2018-05-17T03:13:34.368Z,97240.05
2018-05-17T03:16:01.897Z,97241.13
2018-05-17T03:18:29.424Z,97236.06
2018-05-17T03:20:57.152Z,97236.70
2018-05-17T03:23:24.678Z,97236.35
2018-05-17T03:25:52.217Z,97231.69
2018-05-17T03:28:19.788Z,97239.44
2018-05-17T03:30:47.621Z,97245.84
2018-05-17T03:33:15.140Z,97239.63
2018-05-17T03:35:42.909Z,97247.80
2018-05-17T03:38:10.441Z,97244.33
2018-05-17T03:40:37.968Z,97242.66
2018-05-17T03:43:05.690Z,97244.92
2018-05-17T03:45:33.217Z,97245.62
2018-05-17T03:48:00.748Z,97248.48
2018-05-17T03:50:28.649Z,97251.01
2018-05-17T03:52:56.176Z,97254.86
2018-05-17T03:55:23.700Z,97248.22
2018-05-17T03:57:51.269Z,97251.56
2018-05-17T04:00:18.793Z,97253.15
2018-05-17T04:02:58.462Z,97259.53
2018-05-17T04:05:37.801Z,97257.70
2018-05-17T04:08:05.361Z,97251.69
2018-05-17T04:10:32.888Z,97256.16
2018-05-17T04:13:00.422Z,97255.27
2018-05-17T04:15:28.228Z,97249.61
2018-05-17T04:17:55.745Z,97257.64
2018-05-17T04:20:23.276Z,97254.61
2018-05-17T04:22:51.007Z,97264.68
2018-05-17T04:25:18.532Z,97267.31
2018-05-17T04:27:46.361Z,97267.47
2018-05-17T04:30:13.913Z,97259.95
2018-05-17T04:32:41.445Z,97263.35
2018-05-17T04:35:09.119Z,97260.02
2018-05-17T04:37:37.408Z,97261.65
2018-05-17T04:40:04.937Z,97271.65
2018-05-17T04:42:32.465Z,97276.03
2018-05-17T04:45:01.205Z,97274.31
2018-05-17T04:47:30.206Z,97275.10
2018-05-17T04:49:57.741Z,97275.76
2018-05-17T04:52:25.301Z,97278.45
2018-05-17T04:54:52.852Z,97278.73
2018-05-17T04:57:20.376Z,97279.91
2018-05-17T04:59:47.941Z,97280.66
2018-05-17T05:02:15.471Z,97286.18
2018-05-17T05:04:43.018Z,97279.63
2018-05-17T05:07:10.728Z,97280.13
2018-05-17T05:09:38.248Z,97280.00
2018-05-17T05:12:05.764Z,97276.20
2018-05-17T05:14:33.329Z,97280.30
2018-05-17T05:17:00.852Z,97283.61
2018-05-17T05:19:28.396Z,97286.45
2018-05-17T05:21:56.218Z,97291.72
2018-05-17T05:24:23.750Z,97295.66
2018-05-17T05:26:51.296Z,97294.55
2018-05-17T05:29:19.005Z,97295.09
2018-05-17T05:31:46.532Z,97300.22
2018-05-17T05:34:14.061Z,97302.08
2018-05-17T05:36:41.702Z,97306.69
2018-05-17T05:39:09.772Z,97305.19
2018-05-17T05:41:37.309Z,97308.12
2018-05-17T05:44:04.878Z,97302.18
2018-05-17T05:46:32.401Z,97297.27
2018-05-17T05:48:59.940Z,97293.52
2018-05-17T05:51:27.657Z,97288.29
2018-05-17T05:53:55.176Z,97277.81
2018-05-17T05:56:22.704Z,97283.45
2018-05-17T05:58:50.433Z,97290.34
2018-05-17T06:01:18.523Z,97292.14
2018-05-17T06:03:46.113Z,97279.88
2018-05-17T06:06:13.825Z,97290.91
2018-05-17T06:08:41.349Z,97288.47
2018-05-17T06:11:08.888Z,97294.55
2018-05-17T06:13:37.654Z,97300.55
2018-05-17T06:16:06.235Z,97309.33
2018-05-17T06:18:33.761Z,97302.80
2018-05-17T06:21:01.640Z,97298.56
2018-05-17T06:23:29.170Z,97298.66
2018-05-17T06:25:56.715Z,97314.08
2018-05-17T06:28:24.421Z,97325.27
2018-05-17T06:30:51.944Z,97326.02
2018-05-17T06:33:19.475Z,97330.95
2018-05-17T06:35:47.204Z,97333.40
2018-05-17T06:38:14.733Z,97331.59
2018-05-17T06:40:42.257Z,97336.08
2018-05-17T06:43:09.984Z,97327.39
2018-05-17T06:45:37.821Z,97326.66
2018-05-17T06:48:05.322Z,97325.35
2018-05-17T06:50:32.900Z,97328.36
2018-05-17T06:53:00.428Z,97312.27
2018-05-17T06:55:27.960Z,97311.91
2018-05-17T06:57:55.524Z,97319.92
2018-05-17T07:00:23.061Z,97321.66
2018-05-17T07:02:50.585Z,97329.89
2018-05-17T07:05:18.266Z,97338.16
2018-05-17T07:07:45.796Z,97347.77
2018-05-17T07:10:13.317Z,97345.55
2018-05-17T07:12:41.013Z,97341.73
2018-05-17T07:15:08.537Z,97341.45
2018-05-17T07:17:36.064Z,97349.26
2018-05-17T07:20:03.628Z,97352.12
2018-05-17T07:22:31.152Z,97352.14
2018-05-17T07:24:59.741Z,97366.03
2018-05-17T07:27:27.795Z,97377.02
2018-05-17T07:29:55.358Z,97375.73
2018-05-17T07:32:22.865Z,97379.63
2018-05-17T07:34:50.444Z,97381.88
2018-05-17T07:37:17.968Z,97378.91
2018-05-17T07:39:45.489Z,97380.95
2018-05-17T07:42:13.048Z,97373.26
2018-05-17T07:44:41.136Z,97379.44
2018-05-17T07:47:08.719Z,97378.11
2018-05-17T07:49:36.253Z,97371.27
2018-05-17T07:52:03.850Z,97375.91
2018-05-17T07:54:31.334Z,97375.50
2018-05-17T07:56:59.015Z,97390.31
2018-05-17T07:59:26.538Z,97401.49
2018-05-17T08:01:54.234Z,97396.83
2018-05-17T08:04:22.736Z,97396.77
2018-05-17T08:06:50.316Z,97404.38
2018-05-17T08:09:17.885Z,97407.68
2018-05-17T08:11:45.601Z,97409.67
2018-05-17T08:14:13.125Z,97406.82
2018-05-17T08:16:40.652Z,97403.93
2018-05-17T08:19:08.380Z,97405.61
2018-05-17T08:21:35.937Z,97406.64
2018-05-17T08:24:03.464Z,97410.19
2018-05-17T08:26:31.014Z,97414.20
2018-05-17T08:28:58.645Z,97413.25
2018-05-17T08:31:26.101Z,97411.39
2018-05-17T08:33:53.657Z,97420.41
2018-05-17T08:36:21.306Z,97419.08
2018-05-17T08:38:48.728Z,97422.78
2018-05-17T08:41:16.413Z,97426.47
2018-05-17T08:43:43.936Z,97434.03
2018-05-17T08:46:11.461Z,97435.44
2018-05-17T08:48:39.300Z,97426.91
2018-05-17T08:51:06.824Z,97436.50
2018-05-17T08:53:34.356Z,97440.17
2018-05-17T08:56:02.180Z,97441.14
2018-05-17T08:58:29.717Z,97444.70
2018-05-17T09:00:57.241Z,97443.91
2018-05-17T09:03:24.968Z,97444.54
2018-05-17T09:05:52.505Z,97441.23
2018-05-17T09:08:20.030Z,97443.94
2018-05-17T09:10:47.844Z,97450.69
2018-05-17T09:13:15.373Z,97453.99
2018-05-17T09:15:42.913Z,97466.34
2018-05-17T09:18:11.163Z,97469.85
2018-05-17T09:20:38.697Z,97472.34
2018-05-17T09:23:07.306Z,97470.50
2018-05-17T09:25:35.577Z,97466.52
2018-05-17T09:28:03.101Z,97466.77
2018-05-17T09:30:30.635Z,97466.64
2018-05-17T09:32:58.767Z,97472.64
2018-05-17T09:35:26.318Z,97473.88
2018-05-17T09:37:53.857Z,97473.70
2018-05-17T09:40:21.540Z,97471.32
2018-05-17T09:42:49.070Z,97471.59
2018-05-17T09:45:16.597Z,97471.89
2018-05-17T09:47:44.320Z,97472.05
2018-05-17T09:50:12.820Z,97475.89
2018-05-17T09:52:40.372Z,97481.55
2018-05-17T09:55:08.052Z,97478.72
2018-05-17T09:57:35.522Z,97470.91
2018-05-17T10:00:03.046Z,97472.48
2018-05-17T10:02:30.608Z,97470.83
2018-05-17T10:04:58.133Z,97468.31
2018-05-17T10:07:25.652Z,97476.13
2018-05-17T10:09:53.216Z,97479.79
2018-05-17T10:12:20.743Z,97477.91
2018-05-17T10:14:48.325Z,97481.63
2018-05-17T10:17:16.985Z,97483.09
2018-05-17T10:19:44.503Z,97479.64
2018-05-17T10:22:12.034Z,97481.99
2018-05-17T10:24:39.761Z,97480.14
2018-05-17T10:27:07.281Z,97484.69
2018-05-17T10:29:34.869Z,97478.02
2018-05-17T10:32:02.412Z,97480.22
2018-05-17T10:34:29.935Z,97473.79
2018-05-17T10:36:57.461Z,97482.21
2018-05-17T10:39:25.049Z,97482.02
2018-05-17T10:41:52.588Z,97480.89
2018-05-17T10:44:20.117Z,97480.39
2018-05-17T10:46:47.890Z,97482.97
2018-05-17T10:49:15.413Z,97482.77
2018-05-17T10:51:43.429Z,97487.39
2018-05-17T10:54:12.013Z,97489.61
2018-05-17T10:56:40.087Z,97487.80
2018-05-17T10:59:07.603Z,97489.24
2018-05-17T11:01:35.174Z,97481.98
2018-05-17T11:04:02.694Z,97494.44
2018-05-17T11:06:30.223Z,97489.84
2018-05-17T11:08:58.073Z,97493.27
2018-05-17T11:11:25.617Z,97492.41
2018-05-17T11:13:53.205Z,97485.87
2018-05-17T11:16:21.726Z,97492.28
2018-05-17T11:18:49.261Z,97494.59
2018-05-17T11:21:16.791Z,97499.04
2018-05-17T11:23:44.557Z,97492.79
2018-05-17T11:26:12.078Z,97489.44
2018-05-17T11:28:39.609Z,97489.83
2018-05-17T11:31:08.439Z,97490.70
2018-05-17T11:33:35.974Z,97495.13
2018-05-17T11:36:03.508Z,97494.40
2018-05-17T11:38:31.088Z,97492.82
2018-05-17T11:40:58.634Z,97487.89
2018-05-17T11:43:26.157Z,97489.16
2018-05-17T11:45:53.928Z,97486.39
2018-05-17T11:48:21.492Z,97482.22
2018-05-17T11:50:49.004Z,97485.28
2018-05-17T11:53:16.703Z,97486.56
2018-05-17T11:55:44.229Z,97487.15
2018-05-17T11:58:11.757Z,97489.51
2018-05-17T12:00:39.480Z,97492.86
2018-05-17T12:03:07.013Z,97489.62
2018-05-17T12:05:34.532Z,97491.15
2018-05-17T12:08:02.093Z,97486.31
2018-05-17T12:10:29.620Z,97491.87
2018-05-17T12:12:57.151Z,97486.53
2018-05-17T12:15:24.714Z,97493.16
2018-05-17T12:17:52.245Z,97488.66
2018-05-17T12:20:19.780Z,97489.70
2018-05-17T12:22:47.399Z,97487.88
2018-05-17T12:25:14.924Z,97489.43
2018-05-17T12:27:42.454Z,97493.25
2018-05-17T12:30:10.196Z,97499.84
2018-05-17T12:32:38.774Z,97496.16
2018-05-17T12:35:06.304Z,97493.69
2018-05-17T12:37:33.864Z,97494.45
2018-05-17T12:40:01.388Z,97493.27
2018-05-17T12:42:28.912Z,97492.00
2018-05-17T12:44:56.670Z,97489.05
2018-05-17T12:47:24.204Z,97496.92
2018-05-17T12:49:51.908Z,97490.06
2018-05-17T12:52:19.667Z,97497.17
2018-05-17T12:54:47.207Z,97491.44
2018-05-17T12:57:14.745Z,97492.83
2018-05-17T12:59:42.321Z,97492.01
2018-05-17T13:02:09.849Z,97494.25
2018-05-17T13:04:37.382Z,97502.28
2018-05-17T13:07:05.337Z,97495.67
2018-05-17T13:09:32.778Z,97494.23
2018-05-17T13:12:00.309Z,97491.66
2018-05-17T13:14:28.316Z,97492.09
2018-05-17T13:16:55.845Z,97490.72
2018-05-17T13:19:23.364Z,97489.05
2018-05-17T13:21:51.091Z,97497.30
2018-05-17T13:24:19.688Z,97499.02
2018-05-17T13:26:47.216Z,97490.23
2018-05-17T13:29:14.992Z,97500.33
2018-05-17T13:31:42.519Z,97493.13
2018-05-17T13:34:10.069Z,97491.54
2018-05-17T13:36:37.876Z,97494.08
2018-05-17T13:39:06.369Z,97497.33
2018-05-17T13:41:33.896Z,97492.27
2018-05-17T13:44:01.733Z,97489.54
2018-05-17T13:46:29.256Z,97488.88
2018-05-17T13:48:56.781Z,97485.65
2018-05-17T13:51:24.781Z,97486.95
2018-05-17T13:53:52.464Z,97489.41
2018-05-17T13:56:19.925Z,97492.67
2018-05-17T13:58:47.644Z,97494.83
2018-05-17T14:01:15.171Z,97486.15
2018-05-17T14:03:43.607Z,97496.08
2018-05-17T14:06:11.170Z,97494.27
2018-05-17T14:08:38.705Z,97508.55
2018-05-17T14:11:06.238Z,97507.62
2018-05-17T14:13:33.928Z,97498.96
2018-05-17T14:16:01.610Z,97503.52
2018-05-17T14:18:29.142Z,97507.08
2018-05-17T14:20:56.824Z,97507.17
2018-05-17T14:23:24.368Z,97503.07
2018-05-17T14:25:51.898Z,97506.42
2018-05-17T14:28:19.916Z,97499.52
2018-05-17T14:30:47.479Z,97495.47
2018-05-17T14:33:15.013Z,97497.48
2018-05-17T14:35:42.874Z,97502.70
2018-05-17T14:38:10.400Z,97498.53
2018-05-17T14:40:37.940Z,97503.20
2018-05-17T14:43:05.692Z,97503.64
2018-05-17T14:45:33.234Z,97499.90
2018-05-17T14:48:00.769Z,97494.13
2018-05-17T14:50:28.573Z,97507.42
2018-05-17T14:52:57.033Z,97498.80
2018-05-17T14:55:26.024Z,97498.00
2018-05-17T14:57:53.709Z,97510.89
2018-05-17T15:00:21.232Z,97500.65
2018-05-17T15:02:48.996Z,97504.62
2018-05-17T15:05:16.754Z,97499.11
2018-05-17T15:07:44.964Z,97501.82
2018-05-17T15:10:12.727Z,97492.31
2018-05-17T15:12:40.900Z,97497.70
2018-05-17T15:15:08.794Z,97494.67
2018-05-17T15:17:36.737Z,97493.92
2018-05-17T15:20:04.683Z,97490.58
2018-05-17T15:22:34.212Z,97493.03
2018-05-17T15:25:02.183Z,97493.84
2018-05-17T15:27:30.221Z,97497.39
2018-05-17T15:29:58.098Z,97498.06
2018-05-17T15:32:27.052Z,97495.80
2018-05-17T15:34:56.103Z,97506.95
2018-05-17T15:37:25.504Z,97509.03
2018-05-17T15:39:57.878Z,97505.66
2018-05-17T15:42:25.848Z,97508.16
2018-05-17T15:44:53.819Z,97512.12
2018-05-17T15:47:22.297Z,97510.58
2018-05-17T15:49:50.181Z,97513.94
2018-05-17T15:52:18.151Z,97505.98
2018-05-17T15:54:46.373Z,97507.23
2018-05-17T15:57:13.949Z,97512.78
2018-05-17T15:59:41.606Z,97509.07
2018-05-17T16:02:09.593Z,97509.44
2018-05-17T16:04:37.402Z,97504.44
2018-05-17T16:07:05.435Z,97507.16
2018-05-17T16:09:33.507Z,97510.17
2018-05-17T16:12:01.373Z,97512.16
2018-05-17T16:14:29.660Z,97508.89
2018-05-17T16:16:57.721Z,97511.63
2018-05-17T16:19:25.794Z,97514.63
2018-05-17T16:21:53.636Z,97515.34
2018-05-17T16:24:21.529Z,97510.56
2018-05-17T16:26:49.496Z,97518.66
2018-05-17T16:29:17.463Z,97512.39
2018-05-17T16:31:45.535Z,97513.86
2018-05-17T16:34:13.476Z,97514.42
2018-05-17T16:36:41.371Z,97518.98
2018-05-17T16:39:09.544Z,97516.64
2018-05-17T16:41:37.773Z,97516.71
2018-05-17T16:44:05.692Z,97520.03
2018-05-17T16:46:33.372Z,97517.74
2018-05-17T16:49:00.964Z,97518.98
2018-05-17T16:51:29.492Z,97519.63
2018-05-17T16:53:57.540Z,97518.65
2018-05-17T16:56:25.203Z,97521.51
2018-05-17T16:58:52.928Z,97521.09
2018-05-17T17:01:20.515Z,97528.31
2018-05-17T17:03:48.133Z,97524.64
2018-05-17T17:06:15.872Z,97529.61
2018-05-17T17:08:43.618Z,97524.73
2018-05-17T17:11:11.171Z,97529.25
2018-05-17T17:13:38.856Z,97532.68
2018-05-17T17:16:06.826Z,97532.05
2018-05-17T17:18:34.591Z,97531.27
2018-05-17T17:21:02.427Z,97527.59
2018-05-17T17:23:30.632Z,97531.63
2018-05-17T17:25:58.497Z,97528.02
2018-05-17T17:28:26.365Z,97530.39
2018-05-17T17:30:54.489Z,97523.94
2018-05-17T17:33:22.508Z,97533.12
2018-05-17T17:35:50.334Z,97533.95
2018-05-17T17:38:18.342Z,97537.02
2018-05-17T17:40:52.659Z,97540.98
2018-05-17T17:43:20.732Z,97538.00
2018-05-17T17:45:48.673Z,97535.03
2018-05-17T17:48:16.566Z,97534.80
2018-05-17T17:50:44.608Z,97537.94
2018-05-17T17:53:12.300Z,97532.14
2018-05-17T17:55:40.682Z,97533.22
2018-05-17T17:58:08.545Z,97538.36
2018-05-17T18:00:36.411Z,97542.47
2018-05-17T18:03:04.279Z,97540.48
2018-05-17T18:05:32.608Z,97540.02
2018-05-17T18:08:01.446Z,97531.78
2018-05-17T18:10:29.313Z,97536.20
2018-05-17T18:12:57.279Z,97535.23
2018-05-17T18:15:25.556Z,97540.38
2018-05-17T18:17:53.525Z,97533.93
2018-05-17T18:20:21.700Z,97544.21
2018-05-17T18:22:49.484Z,97537.70
2018-05-17T18:25:18.679Z,97538.92
2018-05-17T18:27:46.639Z,97539.25
2018-05-17T18:30:15.218Z,97541.50
2018-05-17T18:32:43.199Z,97545.22
2018-05-17T18:35:12.283Z,97538.19
2018-05-17T18:37:40.145Z,97538.31
2018-05-17T18:40:08.011Z,97538.70
2018-05-17T18:42:36.393Z,97538.93
2018-05-17T18:45:04.359Z,97545.48
2018-05-17T18:47:32.225Z,97557.97
2018-05-17T18:50:00.199Z,97553.75
2018-05-17T18:52:27.998Z,97551.61
2018-05-17T18:54:56.492Z,97555.08
2018-05-17T18:57:24.926Z,97557.56
2018-05-17T18:59:53.402Z,97561.48
2018-05-17T19:02:21.575Z,97561.18
2018-05-17T19:04:50.466Z,97555.97
2018-05-17T19:07:18.742Z,97558.00
2018-05-17T19:09:46.712Z,97565.27
2018-05-17T19:12:14.782Z,97564.22
2018-05-17T19:14:42.618Z,97568.25
2018-05-17T19:17:10.643Z,97571.47
2018-05-17T19:19:38.753Z,97574.17
2018-05-17T19:22:06.657Z,97574.12
2018-05-17T19:24:34.711Z,97574.81
2018-05-17T19:27:02.903Z,97585.23
2018-05-17T19:29:30.769Z,97581.99
2018-05-17T19:31:58.610Z,97584.76
2018-05-17T19:34:26.723Z,97589.73
2018-05-17T19:36:54.677Z,97586.64
2018-05-17T19:39:22.542Z,97586.34
2018-05-17T19:41:51.561Z,97594.81
2018-05-17T19:44:19.525Z,97592.53
2018-05-17T19:46:47.377Z,97596.30
2018-05-17T19:49:15.581Z,97596.39
2018-05-17T19:51:44.704Z,97599.53
2018-05-17T19:54:12.798Z,97602.81
2018-05-17T19:56:42.533Z,97603.81
2018-05-17T19:59:12.341Z,97608.34
2018-05-17T20:01:41.512Z,97607.97
2018-05-17T20:04:09.523Z,97613.98
2018-05-17T20:06:37.984Z,97610.81
2018-05-17T20:09:05.991Z,97617.66
2018-05-17T20:11:34.434Z,97611.72
2018-05-17T20:14:02.402Z,97615.18
2018-05-17T20:16:30.475Z,97618.91
2018-05-17T20:18:58.649Z,97615.91
2018-05-17T20:21:26.515Z,97614.14
2018-05-17T20:23:54.381Z,97619.57
2018-05-17T20:26:22.452Z,97613.52
2018-05-17T20:28:51.037Z,97614.17
2018-05-17T20:31:19.069Z,97612.06
2018-05-17T20:33:47.081Z,97612.98
2018-05-17T20:36:14.903Z,97610.77
2018-05-17T20:38:42.809Z,97618.16
2018-05-17T20:41:10.838Z,97619.64
2018-05-17T20:43:38.748Z,97621.45
2018-05-17T20:46:06.717Z,97620.77
2018-05-17T20:48:34.686Z,97614.20
2018-05-17T20:51:02.391Z,97621.24
2018-05-17T20:53:30.317Z,97626.20
2018-05-17T20:55:58.274Z,97628.11
2018-05-17T20:58:26.152Z,97627.44
2018-05-17T21:00:54.756Z,97624.09
2018-05-17T21:03:22.703Z,97626.16
2018-05-17T21:05:50.916Z,97624.48
2018-05-17T21:08:18.848Z,97620.98
2018-05-17T21:10:46.559Z,97628.70
2018-05-17T21:13:14.195Z,97627.22
2018-05-17T21:15:41.834Z,97628.98
2018-05-17T21:18:09.909Z,97629.48
2018-05-17T21:20:37.732Z,97629.69
2018-05-17T21:23:05.316Z,97629.36
2018-05-17T21:25:32.891Z,97630.61
2018-05-17T21:28:00.460Z,97629.10
2018-05-17T21:30:28.307Z,97625.58
2018-05-17T21:32:56.294Z,97630.66
2018-05-17T21:35:24.437Z,97627.88
2018-05-17T21:37:56.455Z,97634.61
2018-05-17T21:40:24.289Z,97634.25
2018-05-17T21:42:51.980Z,97633.09
2018-05-17T21:45:21.406Z,97634.66
2018-05-17T21:47:49.629Z,97631.23
2018-05-17T21:50:19.646Z,97628.10
2018-05-17T21:52:47.512Z,97630.75
2018-05-17T21:55:15.825Z,97629.74
2018-05-17T21:57:43.401Z,97633.74
2018-05-17T22:00:10.976Z,97632.48
2018-05-17T22:02:38.532Z,97632.68
2018-05-17T22:05:06.069Z,97634.28
2018-05-17T22:07:33.678Z,97629.16
2018-05-17T22:10:01.200Z,97635.17
2018-05-17T22:12:28.740Z,97628.10
2018-05-17T22:14:56.275Z,97626.90
2018-05-17T22:17:24.004Z,97630.58
2018-05-17T22:19:51.545Z,97630.34
2018-05-17T22:22:19.063Z,97640.91
2018-05-17T22:24:49.369Z,97639.98
2018-05-17T22:27:16.892Z,97639.66
2018-05-17T22:29:44.417Z,97642.95
2018-05-17T22:32:12.064Z,97635.98
2018-05-17T22:34:39.611Z,97642.95
2018-05-17T22:37:07.149Z,97640.66
2018-05-17T22:39:35.113Z,97642.53
2018-05-17T22:42:02.707Z,97632.13
2018-05-17T22:44:30.185Z,97633.48
2018-05-17T22:46:57.754Z,97628.66
2018-05-17T22:49:26.187Z,97621.25
2018-05-17T22:51:53.781Z,97629.00
2018-05-17T22:54:21.308Z,97625.67
2018-05-17T22:57:00.553Z,97625.09
2018-05-17T22:59:28.298Z,97632.45
2018-05-17T23:01:55.821Z,97625.20
2018-05-17T23:04:23.349Z,97631.41
2018-05-17T23:06:51.067Z,97627.62
2018-05-17T23:09:18.602Z,97629.41
2018-05-17T23:11:46.138Z,97623.92
2018-05-17T23:14:13.717Z,97632.95
2018-05-17T23:16:41.248Z,97627.52
2018-05-17T23:19:08.771Z,97631.11
2018-05-17T23:21:36.529Z,97631.84
2018-05-17T23:24:04.061Z,97632.16
2018-05-17T23:26:31.588Z,97634.16
2018-05-17T23:28:59.160Z,97626.62
2018-05-17T23:31:26.690Z,97632.09
2018-05-17T23:33:54.225Z,97631.08
2018-05-17T23:36:21.984Z,97626.12
2018-05-17T23:38:49.509Z,97622.64
2018-05-17T23:41:29.093Z,97625.31
2018-05-17T23:43:56.614Z,97622.41
2018-05-17T23:46:24.145Z,97622.13
2018-05-17T23:48:51.874Z,97622.55
2018-05-17T23:51:19.397Z,97619.43
2018-05-17T23:53:46.933Z,97616.42
2018-05-17T23:56:14.481Z,97618.52
2018-05-17T23:58:42.008Z,97617.08
